sensor_id;sensor_type;location;lat;lon;timestamp;P1;durP1;ratioP1;P2;durP2;ratioP2
41426;SDS011;27171;51.812;19.514;2023-02-19T00:01:29;9.13;;;6.07;;
41426;SDS011;27171;51.812;19.514;2023-02-19T00:04:31;9.38;;;6.38;;
41426;SDS011;27171;51.812;19.514;2023-02-19T00:10:33;7.70;;;4.45;;
41426;SDS011;27171;51.812;19.514;2023-02-19T00:16:39;13.25;;;6.72;;
41426;SDS011;27171;51.812;19.514;2023-02-19T00:22:41;8.45;;;5.60;;
41426;SDS011;27171;51.812;19.514;2023-02-19T00:28:43;12.55;;;6.60;;
41426;SDS011;27171;51.812;19.514;2023-02-19T00:31:44;10.13;;;5.10;;
41426;SDS011;27171;51.812;19.514;2023-02-19T00:34:45;8.10;;;4.88;;
41426;SDS011;27171;51.812;19.514;2023-02-19T00:40:47;11.57;;;5.25;;
41426;SDS011;27171;51.812;19.514;2023-02-19T00:46:58;6.43;;;4.25;;
41426;SDS011;27171;51.812;19.514;2023-02-19T00:53:00;8.02;;;5.30;;
41426;SDS011;27171;51.812;19.514;2023-02-19T00:59:02;7.30;;;4.65;;
41426;SDS011;27171;51.812;19.514;2023-02-19T01:02:04;9.07;;;5.00;;
41426;SDS011;27171;51.812;19.514;2023-02-19T01:05:07;7.20;;;5.07;;
41426;SDS011;27171;51.812;19.514;2023-02-19T01:08:08;5.85;;;4.20;;
41426;SDS011;27171;51.812;19.514;2023-02-19T01:11:09;6.05;;;3.72;;
41426;SDS011;27171;51.812;19.514;2023-02-19T01:14:10;7.65;;;3.90;;
41426;SDS011;27171;51.812;19.514;2023-02-19T01:20:12;5.75;;;4.57;;
41426;SDS011;27171;51.812;19.514;2023-02-19T01:23:13;6.90;;;4.75;;
41426;SDS011;27171;51.812;19.514;2023-02-19T01:29:17;8.43;;;4.30;;
41426;SDS011;27171;51.812;19.514;2023-02-19T01:35:19;5.20;;;3.22;;
41426;SDS011;27171;51.812;19.514;2023-02-19T01:38:20;5.78;;;3.35;;
41426;SDS011;27171;51.812;19.514;2023-02-19T01:47:27;6.15;;;3.90;;
41426;SDS011;27171;51.812;19.514;2023-02-19T01:50:29;6.75;;;4.43;;
41426;SDS011;27171;51.812;19.514;2023-02-19T01:53:39;6.80;;;4.15;;
41426;SDS011;27171;51.812;19.514;2023-02-19T01:56:42;9.07;;;4.60;;
41426;SDS011;27171;51.812;19.514;2023-02-19T01:59:47;8.40;;;4.10;;
41426;SDS011;27171;51.812;19.514;2023-02-19T02:02:52;6.63;;;3.63;;
41426;SDS011;27171;51.812;19.514;2023-02-19T02:05:58;5.68;;;3.58;;
41426;SDS011;27171;51.812;19.514;2023-02-19T02:09:07;6.88;;;3.30;;
41426;SDS011;27171;51.812;19.514;2023-02-19T02:12:08;5.10;;;3.10;;
41426;SDS011;27171;51.812;19.514;2023-02-19T02:15:10;5.72;;;2.90;;
41426;SDS011;27171;51.812;19.514;2023-02-19T02:18:34;9.48;;;4.03;;
41426;SDS011;27171;51.812;19.514;2023-02-19T02:34:48;6.18;;;3.33;;
41426;SDS011;27171;51.812;19.514;2023-02-19T02:38:02;9.10;;;3.50;;
41426;SDS011;27171;51.812;19.514;2023-02-19T02:41:07;5.70;;;3.50;;
41426;SDS011;27171;51.812;19.514;2023-02-19T02:44:09;6.97;;;3.28;;
41426;SDS011;27171;51.812;19.514;2023-02-19T02:47:11;5.18;;;3.13;;
41426;SDS011;27171;51.812;19.514;2023-02-19T02:50:23;7.30;;;3.38;;
41426;SDS011;27171;51.812;19.514;2023-02-19T02:56:31;7.40;;;3.80;;
41426;SDS011;27171;51.812;19.514;2023-02-19T02:59:35;5.78;;;3.65;;
41426;SDS011;27171;51.812;19.514;2023-02-19T03:02:38;5.68;;;3.90;;
41426;SDS011;27171;51.812;19.514;2023-02-19T03:05:41;7.63;;;4.30;;
41426;SDS011;27171;51.812;19.514;2023-02-19T03:08:47;9.82;;;4.70;;
41426;SDS011;27171;51.812;19.514;2023-02-19T03:11:56;11.27;;;5.70;;
41426;SDS011;27171;51.812;19.514;2023-02-19T03:15:00;10.85;;;6.38;;
41426;SDS011;27171;51.812;19.514;2023-02-19T03:18:07;9.65;;;5.90;;
41426;SDS011;27171;51.812;19.514;2023-02-19T03:21:11;12.98;;;5.97;;
41426;SDS011;27171;51.812;19.514;2023-02-19T03:24:15;9.80;;;4.97;;
41426;SDS011;27171;51.812;19.514;2023-02-19T03:27:18;10.52;;;6.30;;
41426;SDS011;27171;51.812;19.514;2023-02-19T03:30:27;8.85;;;5.28;;
41426;SDS011;27171;51.812;19.514;2023-02-19T03:33:31;10.30;;;5.90;;
41426;SDS011;27171;51.812;19.514;2023-02-19T03:36:43;9.55;;;5.53;;
41426;SDS011;27171;51.812;19.514;2023-02-19T03:39:48;9.52;;;6.35;;
41426;SDS011;27171;51.812;19.514;2023-02-19T03:46:24;10.95;;;6.45;;
41426;SDS011;27171;51.812;19.514;2023-02-19T03:49:34;10.65;;;6.68;;
41426;SDS011;27171;51.812;19.514;2023-02-19T03:56:08;9.10;;;5.68;;
41426;SDS011;27171;51.812;19.514;2023-02-19T03:59:27;10.55;;;6.72;;
41426;SDS011;27171;51.812;19.514;2023-02-19T04:06:04;9.52;;;6.68;;
41426;SDS011;27171;51.812;19.514;2023-02-19T04:09:10;10.10;;;6.55;;
41426;SDS011;27171;51.812;19.514;2023-02-19T04:12:15;10.65;;;6.13;;
41426;SDS011;27171;51.812;19.514;2023-02-19T04:15:20;13.20;;;6.65;;
41426;SDS011;27171;51.812;19.514;2023-02-19T04:18:27;8.77;;;5.90;;
41426;SDS011;27171;51.812;19.514;2023-02-19T04:21:33;10.35;;;6.15;;
41426;SDS011;27171;51.812;19.514;2023-02-19T04:24:37;10.15;;;5.78;;
41426;SDS011;27171;51.812;19.514;2023-02-19T04:27:40;10.98;;;7.03;;
41426;SDS011;27171;51.812;19.514;2023-02-19T04:30:45;8.45;;;6.05;;
41426;SDS011;27171;51.812;19.514;2023-02-19T04:36:47;7.53;;;4.50;;
41426;SDS011;27171;51.812;19.514;2023-02-19T04:42:49;9.23;;;4.80;;
41426;SDS011;27171;51.812;19.514;2023-02-19T04:48:50;7.57;;;5.07;;
41426;SDS011;27171;51.812;19.514;2023-02-19T04:54:52;10.68;;;7.40;;
41426;SDS011;27171;51.812;19.514;2023-02-19T05:00:54;11.48;;;7.43;;
41426;SDS011;27171;51.812;19.514;2023-02-19T05:06:56;12.95;;;7.65;;
41426;SDS011;27171;51.812;19.514;2023-02-19T05:09:57;14.90;;;9.73;;
41426;SDS011;27171;51.812;19.514;2023-02-19T05:12:59;13.48;;;9.25;;
41426;SDS011;27171;51.812;19.514;2023-02-19T05:19:02;12.63;;;8.45;;
41426;SDS011;27171;51.812;19.514;2023-02-19T05:22:03;13.18;;;9.48;;
41426;SDS011;27171;51.812;19.514;2023-02-19T05:28:05;10.65;;;7.82;;
41426;SDS011;27171;51.812;19.514;2023-02-19T05:34:08;13.95;;;8.95;;
41426;SDS011;27171;51.812;19.514;2023-02-19T05:40:10;16.73;;;10.70;;
41426;SDS011;27171;51.812;19.514;2023-02-19T05:43:11;17.20;;;11.98;;
41426;SDS011;27171;51.812;19.514;2023-02-19T05:46:14;12.25;;;9.57;;
41426;SDS011;27171;51.812;19.514;2023-02-19T05:49:17;17.27;;;11.52;;
41426;SDS011;27171;51.812;19.514;2023-02-19T05:55:19;17.02;;;11.70;;
41426;SDS011;27171;51.812;19.514;2023-02-19T06:01:21;12.57;;;9.75;;
41426;SDS011;27171;51.812;19.514;2023-02-19T06:04:24;15.60;;;10.18;;
41426;SDS011;27171;51.812;19.514;2023-02-19T06:07:25;13.85;;;9.13;;
41426;SDS011;27171;51.812;19.514;2023-02-19T06:13:27;13.75;;;8.93;;
41426;SDS011;27171;51.812;19.514;2023-02-19T06:19:29;11.60;;;8.02;;
41426;SDS011;27171;51.812;19.514;2023-02-19T06:25:31;15.15;;;10.40;;
41426;SDS011;27171;51.812;19.514;2023-02-19T06:31:33;16.25;;;11.07;;
41426;SDS011;27171;51.812;19.514;2023-02-19T06:37:35;12.02;;;8.70;;
41426;SDS011;27171;51.812;19.514;2023-02-19T06:43:37;10.90;;;8.15;;
41426;SDS011;27171;51.812;19.514;2023-02-19T06:46:38;15.98;;;9.98;;
41426;SDS011;27171;51.812;19.514;2023-02-19T06:49:39;13.32;;;10.25;;
41426;SDS011;27171;51.812;19.514;2023-02-19T06:52:40;15.38;;;10.32;;
41426;SDS011;27171;51.812;19.514;2023-02-19T06:58:42;12.00;;;9.23;;
41426;SDS011;27171;51.812;19.514;2023-02-19T07:01:44;14.95;;;9.77;;
41426;SDS011;27171;51.812;19.514;2023-02-19T07:04:45;16.23;;;10.20;;
41426;SDS011;27171;51.812;19.514;2023-02-19T07:07:46;11.93;;;10.13;;
41426;SDS011;27171;51.812;19.514;2023-02-19T07:10:55;14.05;;;11.18;;
41426;SDS011;27171;51.812;19.514;2023-02-19T07:13:57;12.95;;;9.63;;
41426;SDS011;27171;51.812;19.514;2023-02-19T07:17:00;17.83;;;10.60;;
41426;SDS011;27171;51.812;19.514;2023-02-19T07:23:02;12.70;;;9.15;;
41426;SDS011;27171;51.812;19.514;2023-02-19T07:26:03;11.13;;;8.60;;
41426;SDS011;27171;51.812;19.514;2023-02-19T07:29:08;14.15;;;9.90;;
41426;SDS011;27171;51.812;19.514;2023-02-19T07:32:09;14.32;;;8.38;;
41426;SDS011;27171;51.812;19.514;2023-02-19T07:35:10;14.10;;;8.07;;
41426;SDS011;27171;51.812;19.514;2023-02-19T07:41:14;11.98;;;6.95;;
41426;SDS011;27171;51.812;19.514;2023-02-19T07:47:16;14.30;;;7.70;;
41426;SDS011;27171;51.812;19.514;2023-02-19T07:53:19;13.75;;;7.43;;
41426;SDS011;27171;51.812;19.514;2023-02-19T07:56:20;12.43;;;7.03;;
41426;SDS011;27171;51.812;19.514;2023-02-19T10:50:25;10.47;;;4.07;;
41426;SDS011;27171;51.812;19.514;2023-02-19T10:53:45;7.15;;;3.70;;
41426;SDS011;27171;51.812;19.514;2023-02-19T10:56:50;6.15;;;2.60;;
41426;SDS011;27171;51.812;19.514;2023-02-19T10:59:52;5.72;;;2.25;;
41426;SDS011;27171;51.812;19.514;2023-02-19T11:06:14;6.22;;;2.83;;
41426;SDS011;27171;51.812;19.514;2023-02-19T11:09:27;6.60;;;2.88;;
41426;SDS011;27171;51.812;19.514;2023-02-19T11:12:37;7.93;;;3.13;;
41426;SDS011;27171;51.812;19.514;2023-02-19T11:15:38;10.15;;;3.30;;
41426;SDS011;27171;51.812;19.514;2023-02-19T11:18:41;8.77;;;3.58;;
41426;SDS011;27171;51.812;19.514;2023-02-19T11:21:42;7.22;;;3.85;;
41426;SDS011;27171;51.812;19.514;2023-02-19T11:24:46;9.98;;;4.03;;
41426;SDS011;27171;51.812;19.514;2023-02-19T11:27:53;9.35;;;4.47;;
41426;SDS011;27171;51.812;19.514;2023-02-19T11:30:54;11.25;;;6.10;;
41426;SDS011;27171;51.812;19.514;2023-02-19T11:37:25;10.98;;;7.15;;
41426;SDS011;27171;51.812;19.514;2023-02-19T11:43:46;13.27;;;3.90;;
41426;SDS011;27171;51.812;19.514;2023-02-19T11:57:53;9.50;;;5.10;;
41426;SDS011;27171;51.812;19.514;2023-02-19T12:14:24;8.18;;;3.47;;
41426;SDS011;27171;51.812;19.514;2023-02-19T12:17:39;7.55;;;4.10;;
41426;SDS011;27171;51.812;19.514;2023-02-19T12:27:37;6.03;;;2.97;;
41426;SDS011;27171;51.812;19.514;2023-02-19T12:43:53;5.35;;;2.70;;
41426;SDS011;27171;51.812;19.514;2023-02-19T12:46:59;6.35;;;2.90;;
41426;SDS011;27171;51.812;19.514;2023-02-19T12:53:32;7.97;;;2.67;;
41426;SDS011;27171;51.812;19.514;2023-02-19T12:56:50;6.55;;;2.28;;
41426;SDS011;27171;51.812;19.514;2023-02-19T13:00:08;7.47;;;3.78;;
41426;SDS011;27171;51.812;19.514;2023-02-19T13:12:57;5.03;;;2.05;;
41426;SDS011;27171;51.812;19.514;2023-02-19T13:16:11;7.07;;;2.42;;
41426;SDS011;27171;51.812;19.514;2023-02-19T13:19:15;7.20;;;2.22;;
41426;SDS011;27171;51.812;19.514;2023-02-19T13:25:28;9.38;;;3.95;;
41426;SDS011;27171;51.812;19.514;2023-02-19T13:29:15;6.22;;;1.90;;
41426;SDS011;27171;51.812;19.514;2023-02-19T13:39:15;10.70;;;5.35;;
41426;SDS011;27171;51.812;19.514;2023-02-19T13:42:26;5.10;;;2.47;;
41426;SDS011;27171;51.812;19.514;2023-02-19T13:45:40;6.28;;;2.10;;
41426;SDS011;27171;51.812;19.514;2023-02-19T13:48:44;6.07;;;2.58;;
41426;SDS011;27171;51.812;19.514;2023-02-19T13:51:46;8.27;;;3.55;;
41426;SDS011;27171;51.812;19.514;2023-02-19T13:54:51;5.40;;;2.08;;
41426;SDS011;27171;51.812;19.514;2023-02-19T14:08:06;7.40;;;2.20;;
41426;SDS011;27171;51.812;19.514;2023-02-19T14:11:08;6.25;;;2.30;;
41426;SDS011;27171;51.812;19.514;2023-02-19T14:17:39;6.22;;;1.70;;
41426;SDS011;27171;51.812;19.514;2023-02-19T14:20:42;4.85;;;1.70;;
41426;SDS011;27171;51.812;19.514;2023-02-19T14:23:45;6.85;;;2.08;;
41426;SDS011;27171;51.812;19.514;2023-02-19T14:27:02;9.57;;;1.90;;
41426;SDS011;27171;51.812;19.514;2023-02-19T14:30:04;6.88;;;2.97;;
41426;SDS011;27171;51.812;19.514;2023-02-19T14:33:08;7.57;;;1.88;;
41426;SDS011;27171;51.812;19.514;2023-02-19T14:39:43;6.28;;;1.70;;
41426;SDS011;27171;51.812;19.514;2023-02-19T14:42:44;5.25;;;1.48;;
41426;SDS011;27171;51.812;19.514;2023-02-19T14:46:06;7.72;;;2.28;;
41426;SDS011;27171;51.812;19.514;2023-02-19T14:49:26;8.48;;;2.58;;
41426;SDS011;27171;51.812;19.514;2023-02-19T14:52:40;5.15;;;1.92;;
41426;SDS011;27171;51.812;19.514;2023-02-19T14:55:50;12.93;;;2.83;;
41426;SDS011;27171;51.812;19.514;2023-02-19T15:02:20;4.47;;;1.60;;
41426;SDS011;27171;51.812;19.514;2023-02-19T15:08:31;4.38;;;1.42;;
41426;SDS011;27171;51.812;19.514;2023-02-19T15:11:38;6.25;;;1.58;;
41426;SDS011;27171;51.812;19.514;2023-02-19T15:14:43;7.25;;;1.60;;
41426;SDS011;27171;51.812;19.514;2023-02-19T15:17:46;6.18;;;2.00;;
41426;SDS011;27171;51.812;19.514;2023-02-19T15:20:48;5.43;;;2.22;;
41426;SDS011;27171;51.812;19.514;2023-02-19T15:23:51;9.30;;;2.33;;
41426;SDS011;27171;51.812;19.514;2023-02-19T15:27:00;4.85;;;1.42;;
41426;SDS011;27171;51.812;19.514;2023-02-19T15:30:01;6.70;;;1.88;;
41426;SDS011;27171;51.812;19.514;2023-02-19T15:33:02;6.20;;;1.67;;
41426;SDS011;27171;51.812;19.514;2023-02-19T15:36:15;6.93;;;1.35;;
41426;SDS011;27171;51.812;19.514;2023-02-19T15:39:23;6.95;;;1.45;;
41426;SDS011;27171;51.812;19.514;2023-02-19T15:42:29;6.03;;;1.48;;
41426;SDS011;27171;51.812;19.514;2023-02-19T15:45:37;8.63;;;2.50;;
41426;SDS011;27171;51.812;19.514;2023-02-19T15:49:06;3.63;;;1.88;;
41426;SDS011;27171;51.812;19.514;2023-02-19T15:52:18;10.23;;;1.88;;
41426;SDS011;27171;51.812;19.514;2023-02-19T15:58:59;10.23;;;2.30;;
41426;SDS011;27171;51.812;19.514;2023-02-19T16:02:23;6.60;;;1.80;;
41426;SDS011;27171;51.812;19.514;2023-02-19T16:05:25;8.65;;;2.20;;
41426;SDS011;27171;51.812;19.514;2023-02-19T16:08:28;10.90;;;2.80;;
41426;SDS011;27171;51.812;19.514;2023-02-19T16:11:38;9.23;;;3.00;;
41426;SDS011;27171;51.812;19.514;2023-02-19T16:14:46;12.65;;;4.97;;
41426;SDS011;27171;51.812;19.514;2023-02-19T16:17:48;14.77;;;4.93;;
41426;SDS011;27171;51.812;19.514;2023-02-19T16:20:49;11.07;;;4.32;;
41426;SDS011;27171;51.812;19.514;2023-02-19T16:24:00;6.47;;;2.13;;
41426;SDS011;27171;51.812;19.514;2023-02-19T16:27:25;9.02;;;3.80;;
41426;SDS011;27171;51.812;19.514;2023-02-19T16:30:29;9.77;;;3.60;;
41426;SDS011;27171;51.812;19.514;2023-02-19T16:36:37;11.25;;;3.63;;
41426;SDS011;27171;51.812;19.514;2023-02-19T16:39:39;10.70;;;3.08;;
41426;SDS011;27171;51.812;19.514;2023-02-19T16:45:50;9.18;;;2.70;;
41426;SDS011;27171;51.812;19.514;2023-02-19T16:48:52;10.95;;;4.05;;
41426;SDS011;27171;51.812;19.514;2023-02-19T16:51:53;10.32;;;4.15;;
41426;SDS011;27171;51.812;19.514;2023-02-19T16:54:55;8.82;;;2.80;;
41426;SDS011;27171;51.812;19.514;2023-02-19T16:57:57;22.70;;;11.02;;
41426;SDS011;27171;51.812;19.514;2023-02-19T17:00:58;20.17;;;9.60;;
41426;SDS011;27171;51.812;19.514;2023-02-19T17:07:04;8.40;;;3.35;;
41426;SDS011;27171;51.812;19.514;2023-02-19T17:10:05;11.23;;;3.17;;
41426;SDS011;27171;51.812;19.514;2023-02-19T17:13:07;7.57;;;2.30;;
41426;SDS011;27171;51.812;19.514;2023-02-19T17:16:21;8.18;;;2.83;;
41426;SDS011;27171;51.812;19.514;2023-02-19T17:19:26;9.23;;;4.15;;
41426;SDS011;27171;51.812;19.514;2023-02-19T17:22:28;9.00;;;3.58;;
41426;SDS011;27171;51.812;19.514;2023-02-19T17:25:30;8.93;;;3.03;;
41426;SDS011;27171;51.812;19.514;2023-02-19T17:28:31;9.32;;;3.63;;
41426;SDS011;27171;51.812;19.514;2023-02-19T17:31:32;5.25;;;2.25;;
41426;SDS011;27171;51.812;19.514;2023-02-19T17:34:33;8.30;;;3.72;;
41426;SDS011;27171;51.812;19.514;2023-02-19T17:40:35;15.02;;;5.00;;
41426;SDS011;27171;51.812;19.514;2023-02-19T17:43:36;15.65;;;5.72;;
41426;SDS011;27171;51.812;19.514;2023-02-19T17:46:38;11.00;;;4.45;;
41426;SDS011;27171;51.812;19.514;2023-02-19T17:49:39;9.23;;;4.20;;
41426;SDS011;27171;51.812;19.514;2023-02-19T17:55:42;7.82;;;2.90;;
41426;SDS011;27171;51.812;19.514;2023-02-19T17:58:44;7.97;;;2.97;;
41426;SDS011;27171;51.812;19.514;2023-02-19T18:01:45;9.90;;;3.05;;
41426;SDS011;27171;51.812;19.514;2023-02-19T18:07:48;8.35;;;2.85;;
41426;SDS011;27171;51.812;19.514;2023-02-19T18:10:49;10.35;;;2.72;;
41426;SDS011;27171;51.812;19.514;2023-02-19T18:16:51;10.02;;;3.40;;
41426;SDS011;27171;51.812;19.514;2023-02-19T18:19:53;8.75;;;2.97;;
41426;SDS011;27171;51.812;19.514;2023-02-19T18:22:54;9.05;;;3.67;;
41426;SDS011;27171;51.812;19.514;2023-02-19T18:25:55;8.93;;;3.20;;
41426;SDS011;27171;51.812;19.514;2023-02-19T18:28:57;7.75;;;3.22;;
41426;SDS011;27171;51.812;19.514;2023-02-19T18:31:58;6.65;;;2.63;;
41426;SDS011;27171;51.812;19.514;2023-02-19T18:35:00;11.68;;;3.25;;
41426;SDS011;27171;51.812;19.514;2023-02-19T18:38:01;8.15;;;4.05;;
41426;SDS011;27171;51.812;19.514;2023-02-19T18:41:03;11.15;;;4.00;;
41426;SDS011;27171;51.812;19.514;2023-02-19T18:44:04;10.48;;;3.85;;
41426;SDS011;27171;51.812;19.514;2023-02-19T18:47:06;12.18;;;3.92;;
41426;SDS011;27171;51.812;19.514;2023-02-19T18:50:09;8.90;;;3.78;;
41426;SDS011;27171;51.812;19.514;2023-02-19T18:53:10;13.77;;;3.80;;
41426;SDS011;27171;51.812;19.514;2023-02-19T18:56:12;8.80;;;4.07;;
41426;SDS011;27171;51.812;19.514;2023-02-19T18:59:13;11.07;;;3.80;;
41426;SDS011;27171;51.812;19.514;2023-02-19T19:02:15;8.00;;;3.08;;
41426;SDS011;27171;51.812;19.514;2023-02-19T19:05:18;10.73;;;3.28;;
41426;SDS011;27171;51.812;19.514;2023-02-19T19:08:21;11.68;;;3.13;;
41426;SDS011;27171;51.812;19.514;2023-02-19T19:14:23;6.63;;;2.75;;
41426;SDS011;27171;51.812;19.514;2023-02-19T19:17:25;11.35;;;3.45;;
41426;SDS011;27171;51.812;19.514;2023-02-19T19:20:27;8.27;;;2.78;;
41426;SDS011;27171;51.812;19.514;2023-02-19T19:23:28;5.47;;;2.25;;
41426;SDS011;27171;51.812;19.514;2023-02-19T19:26:30;9.43;;;3.05;;
41426;SDS011;27171;51.812;19.514;2023-02-19T19:29:31;9.13;;;3.22;;
41426;SDS011;27171;51.812;19.514;2023-02-19T19:32:32;7.15;;;2.55;;
41426;SDS011;27171;51.812;19.514;2023-02-19T19:35:35;9.63;;;2.70;;
41426;SDS011;27171;51.812;19.514;2023-02-19T19:38:36;9.93;;;2.83;;
41426;SDS011;27171;51.812;19.514;2023-02-19T19:41:38;8.80;;;2.65;;
41426;SDS011;27171;51.812;19.514;2023-02-19T19:44:39;9.05;;;2.60;;
41426;SDS011;27171;51.812;19.514;2023-02-19T19:47:43;6.85;;;1.90;;
41426;SDS011;27171;51.812;19.514;2023-02-19T19:50:44;8.35;;;2.38;;
41426;SDS011;27171;51.812;19.514;2023-02-19T19:53:48;10.30;;;2.80;;
41426;SDS011;27171;51.812;19.514;2023-02-19T19:56:49;9.48;;;3.45;;
41426;SDS011;27171;51.812;19.514;2023-02-19T19:59:51;11.65;;;3.95;;
41426;SDS011;27171;51.812;19.514;2023-02-19T20:02:52;12.38;;;3.90;;
41426;SDS011;27171;51.812;19.514;2023-02-19T20:08:55;10.57;;;3.72;;
41426;SDS011;27171;51.812;19.514;2023-02-19T20:11:56;12.02;;;4.97;;
41426;SDS011;27171;51.812;19.514;2023-02-19T20:14:57;12.65;;;3.58;;
41426;SDS011;27171;51.812;19.514;2023-02-19T20:17:59;11.00;;;3.85;;
41426;SDS011;27171;51.812;19.514;2023-02-19T20:21:01;9.15;;;3.38;;
41426;SDS011;27171;51.812;19.514;2023-02-19T20:24:03;13.00;;;3.92;;
41426;SDS011;27171;51.812;19.514;2023-02-19T20:27:04;13.77;;;4.68;;
41426;SDS011;27171;51.812;19.514;2023-02-19T20:30:05;9.90;;;3.40;;
41426;SDS011;27171;51.812;19.514;2023-02-19T20:33:07;11.73;;;4.15;;
41426;SDS011;27171;51.812;19.514;2023-02-19T20:36:08;12.98;;;3.60;;
41426;SDS011;27171;51.812;19.514;2023-02-19T20:39:10;6.90;;;2.97;;
41426;SDS011;27171;51.812;19.514;2023-02-19T20:42:11;9.32;;;3.40;;
41426;SDS011;27171;51.812;19.514;2023-02-19T20:51:15;11.93;;;2.90;;
41426;SDS011;27171;51.812;19.514;2023-02-19T20:54:17;9.15;;;3.53;;
41426;SDS011;27171;51.812;19.514;2023-02-19T20:57:19;10.10;;;3.20;;
41426;SDS011;27171;51.812;19.514;2023-02-19T21:00:20;11.88;;;4.13;;
41426;SDS011;27171;51.812;19.514;2023-02-19T21:03:21;8.68;;;3.67;;
41426;SDS011;27171;51.812;19.514;2023-02-19T21:06:22;13.80;;;4.05;;
41426;SDS011;27171;51.812;19.514;2023-02-19T21:09:24;9.57;;;3.67;;
41426;SDS011;27171;51.812;19.514;2023-02-19T21:12:26;10.35;;;3.42;;
41426;SDS011;27171;51.812;19.514;2023-02-19T21:15:27;10.32;;;3.38;;
41426;SDS011;27171;51.812;19.514;2023-02-19T21:18:29;9.25;;;3.15;;
41426;SDS011;27171;51.812;19.514;2023-02-19T21:21:30;13.43;;;4.18;;
41426;SDS011;27171;51.812;19.514;2023-02-19T21:24:32;10.68;;;3.15;;
41426;SDS011;27171;51.812;19.514;2023-02-19T21:27:33;9.55;;;3.15;;
41426;SDS011;27171;51.812;19.514;2023-02-19T21:30:34;9.95;;;2.88;;
41426;SDS011;27171;51.812;19.514;2023-02-19T21:33:35;8.45;;;3.10;;
41426;SDS011;27171;51.812;19.514;2023-02-19T21:36:36;8.07;;;3.35;;
41426;SDS011;27171;51.812;19.514;2023-02-19T21:39:37;11.52;;;3.28;;
41426;SDS011;27171;51.812;19.514;2023-02-19T21:42:38;10.02;;;3.72;;
41426;SDS011;27171;51.812;19.514;2023-02-19T21:45:40;7.85;;;3.70;;
41426;SDS011;27171;51.812;19.514;2023-02-19T21:48:41;9.75;;;3.50;;
41426;SDS011;27171;51.812;19.514;2023-02-19T21:54:44;10.23;;;3.78;;
41426;SDS011;27171;51.812;19.514;2023-02-19T22:00:46;11.75;;;4.10;;
41426;SDS011;27171;51.812;19.514;2023-02-19T22:03:47;11.35;;;4.88;;
41426;SDS011;27171;51.812;19.514;2023-02-19T22:06:48;12.05;;;3.97;;
41426;SDS011;27171;51.812;19.514;2023-02-19T22:09:50;11.52;;;4.75;;
41426;SDS011;27171;51.812;19.514;2023-02-19T22:12:51;8.75;;;3.92;;
41426;SDS011;27171;51.812;19.514;2023-02-19T22:15:52;11.68;;;4.40;;
41426;SDS011;27171;51.812;19.514;2023-02-19T22:21:56;11.75;;;4.47;;
41426;SDS011;27171;51.812;19.514;2023-02-19T22:24:57;11.65;;;5.05;;
41426;SDS011;27171;51.812;19.514;2023-02-19T22:27:58;12.80;;;4.82;;
41426;SDS011;27171;51.812;19.514;2023-02-19T22:31:00;12.65;;;4.50;;
41426;SDS011;27171;51.812;19.514;2023-02-19T22:34:01;12.65;;;4.40;;
41426;SDS011;27171;51.812;19.514;2023-02-19T22:37:03;10.93;;;4.25;;
41426;SDS011;27171;51.812;19.514;2023-02-19T22:40:05;10.75;;;4.00;;
41426;SDS011;27171;51.812;19.514;2023-02-19T22:43:07;13.05;;;4.35;;
41426;SDS011;27171;51.812;19.514;2023-02-19T22:49:10;7.72;;;3.35;;
41426;SDS011;27171;51.812;19.514;2023-02-19T22:52:11;10.88;;;3.60;;
41426;SDS011;27171;51.812;19.514;2023-02-19T22:55:13;9.27;;;3.45;;
41426;SDS011;27171;51.812;19.514;2023-02-19T22:58:15;9.05;;;3.13;;
41426;SDS011;27171;51.812;19.514;2023-02-19T23:01:16;8.43;;;2.58;;
41426;SDS011;27171;51.812;19.514;2023-02-19T23:04:20;11.43;;;2.88;;
41426;SDS011;27171;51.812;19.514;2023-02-19T23:07:22;6.90;;;3.03;;
41426;SDS011;27171;51.812;19.514;2023-02-19T23:10:23;9.30;;;4.30;;
41426;SDS011;27171;51.812;19.514;2023-02-19T23:16:25;9.68;;;3.25;;
41426;SDS011;27171;51.812;19.514;2023-02-19T23:19:26;10.88;;;3.63;;
41426;SDS011;27171;51.812;19.514;2023-02-19T23:22:28;7.57;;;2.72;;
41426;SDS011;27171;51.812;19.514;2023-02-19T23:25:29;10.18;;;4.40;;
41426;SDS011;27171;51.812;19.514;2023-02-19T23:28:30;10.63;;;3.75;;
41426;SDS011;27171;51.812;19.514;2023-02-19T23:34:32;7.45;;;2.63;;
41426;SDS011;27171;51.812;19.514;2023-02-19T23:40:35;7.85;;;3.20;;
41426;SDS011;27171;51.812;19.514;2023-02-19T23:43:36;6.60;;;2.33;;
41426;SDS011;27171;51.812;19.514;2023-02-19T23:46:37;10.32;;;3.05;;
41426;SDS011;27171;51.812;19.514;2023-02-19T23:49:39;12.30;;;4.68;;
41426;SDS011;27171;51.812;19.514;2023-02-19T23:52:41;11.40;;;3.55;;
41426;SDS011;27171;51.812;19.514;2023-02-19T23:55:42;11.10;;;3.90;;
41426;SDS011;27171;51.812;19.514;2023-02-19T23:58:43;7.25;;;3.10;;
